createdAt,value
2023-01-19T00:02:47.696Z,98806.66
2023-01-19T00:05:50.822Z,98811.06
2023-01-19T00:08:53.698Z,98773.66
2023-01-19T00:11:56.564Z,98807.19
2023-01-19T00:14:59.322Z,98811.75
2023-01-19T00:18:02.275Z,98807.50
2023-01-19T00:21:05.072Z,98811.28
2023-01-19T00:24:08.084Z,98814.06
2023-01-19T00:27:10.869Z,98826.94
2023-01-19T00:30:14.005Z,98821.09
2023-01-19T00:33:16.764Z,98831.69
2023-01-19T00:36:19.894Z,98838.53
2023-01-19T00:39:22.691Z,98836.91
2023-01-19T00:42:40.555Z,98841.50
2023-01-19T00:45:43.496Z,98848.34
2023-01-19T00:48:46.620Z,98852.56
2023-01-19T00:51:49.367Z,98857.63
2023-01-19T00:54:55.360Z,98859.41
2023-01-19T00:57:58.278Z,98865.78
2023-01-19T01:01:04.029Z,98855.34
2023-01-19T01:04:07.158Z,98865.78
2023-01-19T01:07:09.952Z,98856.34
2023-01-19T01:10:20.769Z,98861.38
2023-01-19T01:13:26.375Z,98871.00
2023-01-19T01:16:30.366Z,98870.19
2023-01-19T01:19:33.198Z,98870.19
2023-01-19T01:22:36.078Z,98865.28
2023-01-19T01:25:38.992Z,98868.75
2023-01-19T01:28:42.044Z,98886.16
2023-01-19T01:31:44.994Z,98901.00
2023-01-19T01:34:50.916Z,98893.03
2023-01-19T01:37:53.863Z,98894.00
2023-01-19T01:40:59.484Z,98908.69
2023-01-19T01:44:06.558Z,98918.31
2023-01-19T01:47:09.851Z,98922.69
2023-01-19T01:50:27.392Z,98927.09
2023-01-19T01:53:31.659Z,98928.25
2023-01-19T01:56:37.845Z,98942.28
2023-01-19T01:59:44.025Z,98937.88
2023-01-19T02:03:02.405Z,98935.59
2023-01-19T02:06:07.533Z,98937.41
2023-01-19T02:09:30.360Z,98923.69
2023-01-19T02:12:51.822Z,98920.44
2023-01-19T02:16:00.499Z,98919.78
2023-01-19T02:19:04.795Z,98919.16
2023-01-19T02:22:10.175Z,98910.34
2023-01-19T02:25:13.259Z,98921.09
2023-01-19T02:28:20.253Z,98935.94
2023-01-19T02:31:23.783Z,98931.72
2023-01-19T02:34:29.932Z,98927.63
2023-01-19T02:37:37.657Z,98916.56
2023-01-19T02:40:42.235Z,98905.66
2023-01-19T02:43:45.993Z,98927.66
2023-01-19T02:46:49.646Z,98951.13
2023-01-19T02:49:59.924Z,98961.56
2023-01-19T02:53:39.080Z,98971.13
2023-01-19T02:56:53.490Z,98989.81
2023-01-19T03:00:37.803Z,98993.69
2023-01-19T03:04:06.856Z,98987.94
2023-01-19T03:07:15.005Z,98997.31
2023-01-19T03:10:28.898Z,99013.72
2023-01-19T03:13:46.443Z,99011.94
2023-01-19T03:16:55.946Z,99004.94
2023-01-19T03:19:59.053Z,99007.03
2023-01-19T03:23:04.788Z,99016.94
2023-01-19T03:26:10.826Z,99022.16
2023-01-19T03:29:15.076Z,99014.66
2023-01-19T03:32:21.177Z,99017.41
2023-01-19T03:35:25.891Z,99007.31
2023-01-19T03:38:29.584Z,99010.72
2023-01-19T03:41:34.499Z,98997.72
2023-01-19T03:44:38.672Z,98995.94
2023-01-19T03:47:41.809Z,98991.53
2023-01-19T03:50:47.876Z,98992.97
2023-01-19T03:53:50.801Z,99000.13
2023-01-19T03:56:54.264Z,99004.38
2023-01-19T03:59:57.275Z,98999.62
2023-01-19T04:03:00.841Z,98979.44
2023-01-19T04:06:03.822Z,98963.44
2023-01-19T04:09:08.465Z,98979.03
2023-01-19T04:12:11.218Z,99005.38
2023-01-19T04:15:18.783Z,99007.81
2023-01-19T04:18:21.614Z,99029.91
2023-01-19T04:21:25.845Z,99023.72
2023-01-19T04:24:28.601Z,99018.97
2023-01-19T04:27:31.496Z,99013.13
2023-01-19T04:30:37.254Z,99001.38
2023-01-19T04:33:40.068Z,98998.75
2023-01-19T04:36:42.972Z,98998.75
2023-01-19T04:39:45.723Z,98997.41
2023-01-19T04:42:48.792Z,98989.41
2023-01-19T04:45:51.614Z,98979.31
2023-01-19T04:48:54.422Z,98980.28
2023-01-19T04:51:57.480Z,98967.72
2023-01-19T04:55:00.315Z,98927.44
2023-01-19T04:58:03.277Z,98966.91
2023-01-19T05:01:09.189Z,98954.06
2023-01-19T05:04:12.147Z,98954.06
2023-01-19T05:07:15.462Z,98974.06
2023-01-19T05:10:18.344Z,98999.09
2023-01-19T05:13:21.168Z,99018.09
2023-01-19T05:16:23.981Z,99024.94
2023-01-19T05:19:27.007Z,99021.81
2023-01-19T05:22:30.049Z,99029.47
2023-01-19T05:25:32.976Z,99034.00
2023-01-19T05:28:35.830Z,99035.91
2023-01-19T05:31:38.951Z,99049.72
2023-01-19T05:34:41.898Z,99048.91
2023-01-19T05:37:45.519Z,99052.31
2023-01-19T05:40:48.327Z,99039.47
2023-01-19T05:43:51.282Z,99035.91
2023-01-19T05:46:54.191Z,99020.75
2023-01-19T05:49:57.626Z,99020.75
2023-01-19T05:53:01.799Z,99016.06
2023-01-19T05:56:08.847Z,99010.87
2023-01-19T05:59:11.882Z,99011.53
2023-01-19T06:02:15.121Z,99008.00
2023-01-19T06:05:18.141Z,98989.81
2023-01-19T06:08:21.319Z,98987.19
2023-01-19T06:11:24.163Z,98994.03
2023-01-19T06:14:27.473Z,99019.06
2023-01-19T06:17:32.595Z,99015.03
2023-01-19T06:20:36.379Z,99016.06
2023-01-19T06:23:39.208Z,99022.75
2023-01-19T06:26:43.741Z,99027.94
2023-01-19T06:29:46.629Z,99031.88
2023-01-19T06:32:49.746Z,99029.28
2023-01-19T06:35:52.937Z,99036.28
2023-01-19T06:38:55.831Z,99041.97
2023-01-19T06:41:58.621Z,99050.44
2023-01-19T06:45:01.513Z,99047.19
2023-01-19T06:48:04.713Z,99026.37
2023-01-19T06:51:07.669Z,99027.72
2023-01-19T06:54:10.618Z,99039.06
2023-01-19T06:57:14.584Z,99041.69
2023-01-19T07:00:17.999Z,99041.37
2023-01-19T07:03:23.473Z,99036.16
2023-01-19T07:06:26.581Z,99025.31
2023-01-19T07:09:29.843Z,99006.78
2023-01-19T07:12:33.024Z,99010.22
2023-01-19T07:15:37.905Z,99023.22
2023-01-19T07:18:41.841Z,99024.25
2023-01-19T07:21:44.825Z,99027.16
2023-01-19T07:24:47.646Z,99026.72
2023-01-19T07:27:50.591Z,99026.84
2023-01-19T07:30:56.369Z,99041.47
2023-01-19T07:34:00.341Z,99043.97
2023-01-19T07:37:03.963Z,99065.28
2023-01-19T07:40:07.207Z,99075.38
2023-01-19T07:43:10.036Z,99078.66
2023-01-19T07:46:12.991Z,99064.16
2023-01-19T07:49:16.420Z,99068.56
2023-01-19T07:52:19.377Z,99073.44
2023-01-19T07:55:23.752Z,99077.03
2023-01-19T07:58:27.075Z,99090.38
2023-01-19T08:01:30.272Z,99075.91
2023-01-19T08:04:33.321Z,99068.75
2023-01-19T08:07:36.296Z,99064.37
2023-01-19T08:10:39.207Z,99072.84
2023-01-19T08:13:42.246Z,99050.38
2023-01-19T08:16:45.056Z,99058.84
2023-01-19T08:19:48.206Z,99077.75
2023-01-19T08:22:51.248Z,99083.44
2023-01-19T08:25:54.293Z,99071.25
2023-01-19T08:29:02.490Z,99079.72
2023-01-19T08:32:07.094Z,99086.56
2023-01-19T08:35:10.201Z,99097.94
2023-01-19T08:38:13.193Z,99106.41
2023-01-19T08:41:17.197Z,99100.41
2023-01-19T08:44:20.111Z,99110.81
2023-01-19T08:47:22.988Z,99117.34
2023-01-19T08:50:27.322Z,99132.28
2023-01-19T08:53:30.546Z,99137.34
2023-01-19T08:56:33.414Z,99120.91
2023-01-19T08:59:37.238Z,99129.03
2023-01-19T09:02:40.204Z,99131.63
2023-01-19T09:05:43.434Z,99120.09
2023-01-19T09:08:48.048Z,99112.44
2023-01-19T09:11:52.037Z,99113.09
2023-01-19T09:14:55.606Z,99118.31
2023-01-19T09:17:58.884Z,99106.09
2023-01-19T09:21:05.738Z,99108.72
2023-01-19T09:24:09.575Z,99120.59
2023-01-19T09:27:12.266Z,99106.94
2023-01-19T09:30:15.397Z,99113.09
2023-01-19T09:33:18.937Z,99108.72
2023-01-19T09:36:21.805Z,99107.59
2023-01-19T09:39:26.689Z,99106.63
2023-01-19T09:42:48.784Z,99102.75
2023-01-19T09:46:12.589Z,99111.22
2023-01-19T09:49:28.469Z,99137.09
2023-01-19T09:52:33.801Z,99117.22
2023-01-19T09:55:36.745Z,99124.06
2023-01-19T09:58:41.824Z,99116.94
2023-01-19T10:02:00.549Z,99110.59
2023-01-19T10:05:37.020Z,99115.53
2023-01-19T10:08:43.557Z,99123.50
2023-01-19T10:11:53.471Z,99121.25
2023-01-19T10:15:13.630Z,99114.91
2023-01-19T10:18:31.353Z,99132.81
2023-01-19T10:21:39.582Z,99124.19
2023-01-19T10:24:44.403Z,99116.59
2023-01-19T10:27:47.541Z,99113.16
2023-01-19T10:30:51.215Z,99120.16
2023-01-19T10:33:54.768Z,99113.50
2023-01-19T10:37:03.500Z,99112.53
2023-01-19T10:40:09.618Z,99114.69
2023-01-19T10:43:45.285Z,99110.28
2023-01-19T10:46:49.676Z,99101.84
2023-01-19T10:49:53.328Z,99102.50
2023-01-19T10:53:00.360Z,99106.59
2023-01-19T10:56:35.470Z,99102.03
2023-01-19T10:59:45.247Z,99101.87
2023-01-19T11:02:50.920Z,99106.78
2023-01-19T11:05:54.083Z,99105.28
2023-01-19T11:09:17.589Z,99102.34
2023-01-19T11:12:23.893Z,99114.41
2023-01-19T11:15:43.228Z,99122.41
2023-01-19T11:18:47.502Z,99118.16
2023-01-19T11:21:50.904Z,99109.84
2023-01-19T11:24:58.031Z,99137.50
2023-01-19T11:28:01.575Z,99122.53
2023-01-19T11:31:27.496Z,99133.09
2023-01-19T11:34:37.690Z,99132.63
2023-01-19T11:37:43.497Z,99135.56
2023-01-19T11:40:57.573Z,99082.22
2023-01-19T11:44:17.153Z,99132.28
2023-01-19T11:47:31.014Z,99137.31
2023-01-19T11:50:36.648Z,99140.88
2023-01-19T11:53:44.069Z,99153.25
2023-01-19T11:56:49.355Z,99163.63
2023-01-19T11:59:55.640Z,99167.84
2023-01-19T12:03:08.975Z,99169.13
2023-01-19T12:06:19.714Z,99177.09
2023-01-19T12:09:23.231Z,99173.69
2023-01-19T12:12:27.748Z,99180.47
2023-01-19T12:15:37.759Z,99180.63
2023-01-19T12:18:51.484Z,99185.97
2023-01-19T12:21:54.689Z,99186.91
2023-01-19T12:25:22.937Z,99194.72
2023-01-19T12:28:32.240Z,99189.97
2023-01-19T12:31:35.586Z,99196.47
2023-01-19T12:34:46.907Z,99206.50
2023-01-19T12:37:55.836Z,99221.25
2023-01-19T12:41:19.270Z,99210.75
2023-01-19T12:44:25.896Z,99229.50
2023-01-19T12:47:32.376Z,99224.91
2023-01-19T12:50:38.139Z,99182.50
2023-01-19T12:53:59.978Z,99242.22
2023-01-19T12:57:18.982Z,99238.81
2023-01-19T13:00:25.044Z,99241.97
2023-01-19T13:03:28.452Z,99248.13
2023-01-19T13:06:49.679Z,99249.09
2023-01-19T13:09:57.245Z,99249.25
2023-01-19T13:13:22.935Z,99246.34
2023-01-19T13:16:29.025Z,99198.53
2023-01-19T13:19:44.768Z,99265.97
2023-01-19T13:22:50.251Z,99264.03
2023-01-19T13:26:03.330Z,99271.69
2023-01-19T13:29:25.710Z,99268.28
2023-01-19T13:32:31.994Z,99279.78
2023-01-19T13:35:38.193Z,99277.47
2023-01-19T13:38:41.794Z,99281.72
2023-01-19T13:41:45.071Z,99291.47
2023-01-19T13:44:52.680Z,99295.59
2023-01-19T13:47:57.743Z,99307.25
2023-01-19T13:51:18.141Z,99305.63
2023-01-19T13:54:26.286Z,99317.97
2023-01-19T13:57:32.954Z,99318.09
2023-01-19T14:00:35.997Z,99326.03
2023-01-19T14:03:42.306Z,99327.69
2023-01-19T14:06:48.935Z,99322.63
2023-01-19T14:10:06.518Z,99318.91
2023-01-19T14:13:18.518Z,99331.91
2023-01-19T14:16:25.818Z,99325.91
2023-01-19T14:19:28.880Z,99300.66
2023-01-19T14:22:44.385Z,99336.97
2023-01-19T14:25:47.168Z,99337.13
2023-01-19T14:28:50.926Z,99335.78
2023-01-19T14:32:21.515Z,99331.53
2023-01-19T14:35:25.525Z,99327.97
2023-01-19T14:38:28.427Z,99346.75
2023-01-19T14:41:39.737Z,99346.22
2023-01-19T14:44:48.395Z,99358.41
2023-01-19T14:48:04.904Z,99360.59
2023-01-19T14:51:07.773Z,99360.84
2023-01-19T14:54:19.641Z,99356.91
2023-01-19T14:57:22.459Z,99352.13
2023-01-19T15:00:27.415Z,99344.63
2023-01-19T15:03:49.327Z,99335.47
2023-01-19T15:06:56.953Z,99325.50
2023-01-19T15:09:59.895Z,99329.59
2023-01-19T15:13:05.911Z,99342.44
2023-01-19T15:16:11.945Z,99374.16
2023-01-19T15:19:17.170Z,99387.03
2023-01-19T15:22:20.173Z,99396.47
2023-01-19T15:25:27.931Z,99389.91
2023-01-19T15:28:31.786Z,99388.81
2023-01-19T15:31:38.664Z,99385.81
2023-01-19T15:34:42.232Z,99398.00
2023-01-19T15:37:46.873Z,99402.25
2023-01-19T15:40:51.628Z,99412.09
2023-01-19T15:43:54.740Z,99419.06
2023-01-19T15:46:58.121Z,99424.13
2023-01-19T15:50:01.878Z,99429.03
2023-01-19T15:53:05.822Z,99424.94
2023-01-19T15:56:24.946Z,99437.53
2023-01-19T15:59:28.289Z,99448.75
2023-01-19T16:02:32.870Z,99452.97
2023-01-19T16:05:42.898Z,99466.38
2023-01-19T16:08:46.292Z,99477.31
2023-01-19T16:11:50.575Z,99496.47
2023-01-19T16:14:53.546Z,99497.28
2023-01-19T16:17:57.649Z,99507.16
2023-01-19T16:21:01.811Z,99512.59
2023-01-19T16:24:10.026Z,99520.84
2023-01-19T16:27:14.652Z,99520.03
2023-01-19T16:30:19.619Z,99517.81
2023-01-19T16:33:23.754Z,99521.09
2023-01-19T16:36:32.338Z,99530.94
2023-01-19T16:39:35.246Z,99544.91
2023-01-19T16:42:41.042Z,99537.66
2023-01-19T16:46:02.395Z,99554.19
2023-01-19T16:49:16.293Z,99552.28
2023-01-19T16:52:21.499Z,99552.41
2023-01-19T16:55:24.826Z,99541.75
2023-01-19T16:58:27.867Z,99540.66
2023-01-19T17:01:30.859Z,99548.72
2023-01-19T17:04:34.875Z,99560.47
2023-01-19T17:07:37.644Z,99567.00
2023-01-19T17:10:42.208Z,99568.22
2023-01-19T17:13:45.059Z,99565.19
2023-01-19T17:16:48.533Z,99556.16
2023-01-19T17:19:51.867Z,99561.75
2023-01-19T17:22:56.689Z,99556.69
2023-01-19T17:26:00.217Z,99564.75
2023-01-19T17:29:07.930Z,99577.31
2023-01-19T17:32:13.477Z,99579.22
2023-01-19T17:35:19.006Z,99578.09
2023-01-19T17:38:22.147Z,99575.22
2023-01-19T17:41:27.798Z,99579.53
2023-01-19T17:44:31.144Z,99589.09
2023-01-19T17:47:34.198Z,99590.31
2023-01-19T17:50:37.169Z,99576.91
2023-01-19T17:53:42.062Z,99575.97
2023-01-19T17:56:45.012Z,99564.50
2023-01-19T17:59:48.121Z,99568.56
2023-01-19T18:02:53.248Z,99560.34
2023-01-19T18:05:56.237Z,99591.66
2023-01-19T18:09:00.724Z,99602.88
2023-01-19T18:12:04.204Z,99593.69
2023-01-19T18:15:09.178Z,99586.28
2023-01-19T18:18:11.926Z,99579.16
2023-01-19T18:21:15.241Z,99577.62
2023-01-19T18:24:18.327Z,99582.00
2023-01-19T18:27:22.179Z,99587.38
2023-01-19T18:30:26.579Z,99593.69
2023-01-19T18:33:31.564Z,99596.28
2023-01-19T18:36:35.214Z,99599.97
2023-01-19T18:39:38.409Z,99609.22
2023-01-19T18:42:41.715Z,99610.47
2023-01-19T18:45:48.344Z,99620.34
2023-01-19T18:48:52.119Z,99638.75
2023-01-19T18:51:58.358Z,99651.91
2023-01-19T18:55:01.698Z,99626.75
2023-01-19T18:58:07.243Z,99647.44
2023-01-19T19:01:36.732Z,99659.59
2023-01-19T19:04:41.542Z,99655.72
2023-01-19T19:07:45.681Z,99663.50
2023-01-19T19:10:48.801Z,99663.13
2023-01-19T19:13:54.251Z,99667.56
2023-01-19T19:16:57.714Z,99677.81
2023-01-19T19:20:00.884Z,99666.75
2023-01-19T19:23:04.042Z,99676.81
2023-01-19T19:26:09.804Z,99681.75
2023-01-19T19:29:13.392Z,99685.81
2023-01-19T19:32:20.653Z,99689.91
2023-01-19T19:35:24.214Z,99683.34
2023-01-19T19:38:28.247Z,99685.81
2023-01-19T19:41:35.052Z,99686.75
2023-01-19T19:44:38.280Z,99674.78
2023-01-19T19:47:43.127Z,99680.22
2023-01-19T19:50:46.499Z,99687.66
2023-01-19T19:53:51.995Z,99686.38
2023-01-19T19:56:58.133Z,99686.38
2023-01-19T20:00:02.551Z,99695.09
2023-01-19T20:03:22.229Z,99692.75
2023-01-19T20:06:27.964Z,99700.53
2023-01-19T20:09:32.962Z,99696.91
2023-01-19T20:12:36.443Z,99699.06
2023-01-19T20:15:39.994Z,99680.59
2023-01-19T20:18:48.781Z,99681.53
2023-01-19T20:21:53.082Z,99677.28
2023-01-19T20:24:56.188Z,99679.66
2023-01-19T20:28:00.222Z,99670.47
2023-01-19T20:31:13.179Z,99688.28
2023-01-19T20:34:18.141Z,99674.81
2023-01-19T20:37:22.919Z,99685.94
2023-01-19T20:40:26.280Z,99685.56
2023-01-19T20:43:30.736Z,99650.97
2023-01-19T20:46:33.863Z,99690.28
2023-01-19T20:49:37.457Z,99704.44
2023-01-19T20:52:40.506Z,99698.19
2023-01-19T20:55:43.536Z,99695.97
2023-01-19T20:58:46.605Z,99696.09
2023-01-19T21:01:50.398Z,99696.53
2023-01-19T21:04:54.993Z,99699.13
2023-01-19T21:07:58.094Z,99702.09
2023-01-19T21:11:01.592Z,99706.69
2023-01-19T21:14:05.880Z,99660.91
2023-01-19T21:17:09.137Z,99704.22
2023-01-19T21:20:12.500Z,99698.31
2023-01-19T21:23:15.744Z,99708.66
2023-01-19T21:26:18.634Z,99714.62
2023-01-19T21:29:21.376Z,99723.53
2023-01-19T21:32:24.150Z,99728.56
2023-01-19T21:35:26.955Z,99737.69
2023-01-19T21:38:30.460Z,99722.72
2023-01-19T21:41:38.261Z,99720.81
2023-01-19T21:44:41.102Z,99710.19
2023-01-19T21:47:44.030Z,99706.28
2023-01-19T21:50:57.282Z,99701.47
2023-01-19T21:54:00.674Z,99695.69
2023-01-19T21:57:03.625Z,99704.72
2023-01-19T22:00:07.291Z,99720.75
2023-01-19T22:03:10.364Z,99723.75
2023-01-19T22:06:14.765Z,99730.91
2023-01-19T22:09:17.496Z,99741.66
2023-01-19T22:12:26.821Z,99728.91
2023-01-19T22:15:30.799Z,99750.59
2023-01-19T22:18:35.877Z,99749.47
2023-01-19T22:21:38.802Z,99743.72
2023-01-19T22:24:44.565Z,99744.63
2023-01-19T22:27:47.231Z,99745.56
2023-01-19T22:30:50.146Z,99737.81
2023-01-19T22:33:53.325Z,99758.75
2023-01-19T22:36:56.108Z,99774.34
2023-01-19T22:39:59.142Z,99776.94
2023-01-19T22:43:01.873Z,99789.44
2023-01-19T22:46:06.630Z,99789.66
2023-01-19T22:49:13.618Z,99797.59
2023-01-19T22:52:16.424Z,99798.75
2023-01-19T22:55:19.163Z,99779.75
2023-01-19T22:58:22.375Z,99769.22
2023-01-19T23:01:33.789Z,99760.66
2023-01-19T23:04:36.689Z,99766.53
2023-01-19T23:07:39.913Z,99770.25
2023-01-19T23:10:42.665Z,99782.59
2023-01-19T23:13:46.212Z,99787.84
2023-01-19T23:16:49.032Z,99813.53
2023-01-19T23:19:51.761Z,99814.56
2023-01-19T23:22:54.596Z,99824.16
2023-01-19T23:26:02.201Z,99827.75
2023-01-19T23:29:07.818Z,99824.97
2023-01-19T23:32:10.585Z,99805.56
2023-01-19T23:35:14.581Z,99811.84
2023-01-19T23:38:17.576Z,99806.91
2023-01-19T23:41:20.891Z,99807.50
2023-01-19T23:44:23.713Z,99803.56
2023-01-19T23:47:26.438Z,99794.34
2023-01-19T23:50:29.284Z,99806.50
2023-01-19T23:53:32.091Z,99810.50
2023-01-19T23:56:37.351Z,99803.87
2023-01-19T23:59:40.232Z,99794.31
